Terminal Aerodrome Forecast
Issued by NWS

Home | Current Version | Previous Version | Text Only | Print | Product List | Glossary On
Versions: 1 2 3 4 5 6 7 8 9 10 11 12 13 14 15 16 17 18 19 20 21 22 23 24 25 26 27 28 29 30 31 32 33 34 35 36
813
FTUS41 KOKX 250238 AAA
TAFHPN
TAF AMD
KHPN 250238Z 2503/2524 10007KT P6SM SCT030 BKN250
     FM250700 08006KT P6SM BKN025
     FM250900 07011KT 6SM -RA BR SCT008 BKN012
     FM251200 09013G21KT 2SM -RA BR OVC005
     FM251800 07008KT 2SM -RA BR OVC004
      AMD NOT SKED=

USA.gov is the U.S. government's official web portal to all federal, state and local government web resources and services.